Time;durP1;ratioP1;P1;durP2;ratioP2;P2;SDS_P1;SDS_P2;PMS_P1;PMS_P2;Temp;Humidity;BMP_temperature;BMP_pressure;BME280_temperature;BME280_humidity;BME280_pressure;Samples;Min_cycle;Max_cycle;Signal;HPM_P1;HPM_P2
2022/02/09 00:05:21;;;;;;;;;;;;;;;7.85;87.73;102267.56;5055851;28;20135;-84
2022/02/09 00:10:01;;;;;;;2.05;0.60;;;;;;;7.96;86.82;102269.72;5055475;28;20040;-83
2022/02/09 00:12:37;;;;;;;2.38;0.70;;;;;;;7.95;87.26;102272.59;5053814;28;20029;-83
2022/02/09 00:17:52;;;;;;;1.52;0.47;;;;;;;7.94;87.60;102269.09;5053545;28;20098;-84
2022/02/09 00:23:32;;;;;;;2.20;0.68;;;;;;;7.91;88.12;102261.50;5066824;28;20052;-83
2022/02/09 00:44:15;;;;;;;2.33;0.68;;;;;;;7.84;90.24;102273.94;5056539;28;20514;-84
2022/02/09 01:42:12;;;;;;;4.13;0.85;;;;;;;7.90;89.74;102289.19;5053563;28;20018;-83
2022/02/09 01:57:03;;;;;;;2.75;0.90;;;;;;;7.94;89.42;102278.94;5052603;28;20044;-83
2022/02/09 01:59:30;;;;;;;3.88;1.17;;;;;;;7.96;88.89;102268.91;5051675;28;20024;-83
2022/02/09 02:01:55;;;;;;;1.60;0.93;;;;;;;7.97;88.76;102274.06;5049179;28;20678;-83
2022/02/09 02:04:24;;;;;;;5.50;1.00;;;;;;;7.96;88.73;102271.56;5049335;28;20048;-83
2022/02/09 02:06:55;;;;;;;3.25;1.05;;;;;;;7.96;88.55;102267.06;5052341;28;20029;-83
2022/02/09 02:09:22;;;;;;;2.97;1.10;;;;;;;7.95;88.94;102268.09;5053079;28;20060;-83
2022/02/09 02:11:54;;;;;;;4.18;1.40;;;;;;;7.94;88.47;102258.44;5054144;28;20021;-83
2022/02/09 02:14:27;;;;;;;5.15;1.30;;;;;;;7.95;88.57;102259.25;5056206;28;20159;-84
2022/02/09 02:17:08;;;;;;;2.78;1.10;;;;;;;7.93;88.46;102261.28;5064420;28;20028;-82
2022/02/09 02:19:57;;;;;;;3.40;1.08;;;;;;;7.94;88.64;102258.44;5056232;28;20021;-83
2022/02/09 02:28:36;;;;;;;3.83;0.80;;;;;;;7.87;88.94;102253.00;5058238;28;20046;-84
2022/02/09 02:35:55;;;;;;;3.25;0.90;;;;;;;7.87;89.04;102252.19;5060781;28;20060;-83
2022/02/09 02:57:35;;;;;;;4.28;2.05;;;;;;;7.87;89.24;102231.66;5059350;28;20032;-84
2022/02/09 03:08:26;;;;;;;4.60;2.90;;;;;;;7.96;89.51;102223.53;5060625;28;20643;-83
2022/02/09 03:13:33;;;;;;;6.22;3.75;;;;;;;7.96;89.75;102219.03;5054808;28;20460;-83
2022/02/09 03:16:05;;;;;;;8.38;4.65;;;;;;;7.98;90.11;102216.97;5055879;28;20025;-83
2022/02/09 03:47:51;;;;;;;10.38;5.47;;;;;;;8.33;91.97;102171.59;5059642;28;20025;-83
2022/02/09 03:58:19;;;;;;;10.07;5.72;;;;;;;8.43;92.53;102188.91;5057244;28;20470;-84
2022/02/09 04:00:46;;;;;;;10.88;5.95;;;;;;;8.44;92.96;102190.59;5050890;28;20020;-83
2022/02/09 04:03:19;;;;;;;11.30;5.88;;;;;;;8.44;94.44;102189.75;5049245;28;20103;-83
2022/02/09 04:05:47;;;;;;;11.05;6.38;;;;;;;8.46;93.89;102199.22;5063435;28;20497;-85
2022/02/09 04:08:15;;;;;;;10.70;5.93;;;;;;;8.49;95.00;102187.31;5073906;28;20033;-82
2022/02/09 04:10:47;;;;;;;9.23;5.55;;;;;;;8.47;95.24;102187.50;5053080;28;20028;-84
2022/02/09 04:13:21;;;;;;;9.88;5.72;;;;;;;8.48;95.56;102186.50;5052294;28;20032;-83
2022/02/09 04:16:06;;;;;;;10.30;6.45;;;;;;;8.52;94.68;102194.91;5045012;28;20021;-83
2022/02/09 04:18:59;;;;;;;10.95;5.63;;;;;;;8.57;94.19;102194.31;5054888;28;20021;-83
2022/02/09 04:43:22;;;;;;;9.75;5.60;;;;;;;8.70;94.37;102167.66;5056034;28;20040;-83
2022/02/09 04:48:35;;;;;;;10.57;6.30;;;;;;;8.67;95.62;102160.88;5055465;28;20047;-83
2022/02/09 04:51:16;;;;;;;12.85;5.70;;;;;;;8.72;94.78;102155.75;5051931;28;20063;-83
2022/02/09 05:04:45;;;;;;;8.98;5.63;;;;;;;8.74;94.36;102153.69;5059594;28;20029;-85
2022/02/09 05:26:09;;;;;;;9.48;5.78;;;;;;;8.81;94.02;102135.00;5053894;28;20031;-78
2022/02/09 05:28:35;;;;;;;10.40;6.40;;;;;;;8.79;94.06;102142.38;5051209;28;20021;-77
2022/02/09 05:31:00;;;;;;;11.50;6.72;;;;;;;8.82;94.67;102138.50;5054197;28;20037;-77
2022/02/09 05:33:26;;;;;;;10.80;6.38;;;;;;;8.83;94.16;102145.50;5046344;28;20814;-77
2022/02/09 05:35:52;;;;;;;13.52;7.18;;;;;;;8.83;94.19;102146.31;5045916;28;20043;-78
2022/02/09 05:38:18;;;;;;;14.82;7.43;;;;;;;8.89;93.76;102140.16;5045507;28;20056;-78
2022/02/09 05:40:44;;;;;;;13.65;7.60;;;;;;;8.89;93.82;102136.66;5049892;28;21459;-78
2022/02/09 05:43:11;;;;;;;14.10;8.00;;;;;;;8.88;93.88;102132.34;5044475;28;20094;-77
2022/02/09 05:56:37;;;;;;;19.15;8.85;;;;;;;8.91;93.25;102138.09;5052587;28;20543;-78
2022/02/09 06:01:37;;;;;;;17.73;9.35;;;;;;;8.97;92.85;102137.28;5050461;28;20039;-77
2022/02/09 06:04:03;;;;;;;15.57;8.57;;;;;;;8.94;93.16;102147.56;5056590;28;20162;-78
2022/02/09 06:06:28;;;;;;;15.60;8.90;;;;;;;8.92;92.93;102142.41;5042858;28;20056;-77
2022/02/09 06:08:55;;;;;;;16.38;8.52;;;;;;;8.98;92.58;102143.47;5044561;28;20060;-77
2022/02/09 06:14:14;;;;;;;17.85;8.65;;;;;;;8.96;92.83;102140.16;5047828;28;20035;-77
2022/02/09 06:22:01;;;;;;;16.20;8.40;;;;;;;8.96;91.98;102156.19;5047465;28;20417;-77
2022/02/09 06:24:26;;;;;;;18.38;7.25;;;;;;;8.93;92.07;102156.59;5044497;28;20495;-78
2022/02/09 06:26:52;;;;;;;12.93;7.28;;;;;;;8.86;92.40;102153.09;5046922;28;20302;-77
2022/02/09 06:29:18;;;;;;;14.27;8.00;;;;;;;8.86;92.17;102161.94;5051090;28;20048;-77
2022/02/09 06:31:44;;;;;;;14.30;8.05;;;;;;;8.85;92.53;102159.47;5046184;28;20036;-77
2022/02/09 06:34:16;;;;;;;12.75;7.00;;;;;;;8.84;92.49;102152.50;5037684;28;20034;-77
2022/02/09 06:36:47;;;;;;;13.73;7.32;;;;;;;8.85;91.96;102165.66;5045636;28;20569;-77
2022/02/09 06:39:14;;;;;;;15.63;7.85;;;;;;;8.83;92.00;102156.19;5046305;28;20104;-77
2022/02/09 06:41:41;;;;;;;12.80;8.18;;;;;;;8.84;92.25;102157.84;5042845;28;20134;-77
2022/02/09 06:44:08;;;;;;;13.18;8.25;;;;;;;8.87;91.95;102154.75;5048309;28;20028;-78
2022/02/09 06:46:36;;;;;;;14.90;8.38;;;;;;;8.91;91.80;102156.00;5043093;28;20110;-77
2022/02/09 06:49:05;;;;;;;13.35;7.75;;;;;;;8.91;91.36;102156.00;5041694;28;20021;-77
2022/02/09 06:51:40;;;;;;;17.35;8.52;;;;;;;8.88;91.17;102164.41;5048748;28;20060;-77
2022/02/09 06:54:31;;;;;;;12.40;7.78;;;;;;;8.88;91.12;102157.22;5047878;28;20029;-77
2022/02/09 07:01:45;;;;;;;20.98;9.30;;;;;;;8.88;90.74;102167.09;5047567;28;20053;-77
2022/02/09 07:04:10;;;;;;;12.93;7.95;;;;;;;8.89;90.56;102169.56;5047024;28;20643;-77
2022/02/09 07:06:36;;;;;;;14.98;8.65;;;;;;;8.91;90.35;102161.34;5058732;28;20429;-77
2022/02/09 07:09:01;;;;;;;15.18;8.85;;;;;;;8.92;90.57;102166.47;5046969;28;20680;-77
2022/02/09 07:11:27;;;;;;;15.38;8.93;;;;;;;8.93;90.48;102172.66;5048668;28;20032;-78
2022/02/09 07:13:52;;;;;;;15.05;8.98;;;;;;;8.94;90.32;102167.09;5049996;28;20032;-77
2022/02/09 07:16:20;;;;;;;15.73;9.68;;;;;;;8.92;90.22;102173.66;5048699;28;20078;-77
2022/02/09 07:18:47;;;;;;;16.20;9.50;;;;;;;8.92;89.92;102171.81;5035172;28;20066;-77
2022/02/09 07:21:18;;;;;;;14.07;9.27;;;;;;;8.90;90.16;102167.72;5047303;28;20523;-77
2022/02/09 07:23:50;;;;;;;15.52;8.93;;;;;;;8.90;90.01;102167.72;5050259;28;20058;-77
2022/02/09 07:26:29;;;;;;;16.88;9.20;;;;;;;8.87;89.84;102168.94;5044362;28;20113;-77
2022/02/09 07:28:56;;;;;;;17.38;9.50;;;;;;;8.87;89.66;102157.44;5045778;28;20115;-77
2022/02/09 07:31:22;;;;;;;19.15;9.80;;;;;;;8.89;89.71;102171.41;5050219;28;20786;-77
2022/02/09 07:33:48;;;;;;;17.17;10.65;;;;;;;8.90;89.69;102173.88;5055405;28;20100;-77
2022/02/09 07:36:16;;;;;;;15.63;9.35;;;;;;;8.93;89.40;102165.44;5048026;28;20037;-77
2022/02/09 07:38:42;;;;;;;15.57;9.05;;;;;;;8.93;89.26;102168.13;5047467;28;20028;-77
2022/02/09 07:41:08;;;;;;;17.02;8.85;;;;;;;8.93;89.20;102153.94;5047056;28;20029;-77
2022/02/09 07:43:44;;;;;;;15.10;9.77;;;;;;;8.95;89.06;102154.56;5051113;28;20021;-77
2022/02/09 07:54:05;;;;;;;23.98;10.93;;;;;;;8.93;88.59;102140.56;5051443;28;20511;-78
2022/02/09 07:56:36;;;;;;;18.00;10.50;;;;;;;8.93;88.39;102145.91;5048506;28;20029;-77
2022/02/09 07:59:04;;;;;;;17.05;10.35;;;;;;;8.96;88.41;102142.81;5049435;28;20499;-77
2022/02/09 08:01:30;;;;;;;15.38;9.02;;;;;;;8.96;88.40;102148.19;5047192;28;20032;-77
2022/02/09 08:03:56;;;;;;;14.80;9.63;;;;;;;8.96;88.34;102145.50;5051255;28;20033;-77
2022/02/09 08:06:24;;;;;;;16.92;9.50;;;;;;;8.97;88.47;102152.50;5050263;28;20028;-77
2022/02/09 08:09:00;;;;;;;19.67;9.60;;;;;;;8.97;88.14;102149.81;5050984;28;20475;-77
2022/02/09 08:11:35;;;;;;;15.73;8.60;;;;;;;8.97;87.80;102153.31;5051583;28;20033;-77
2022/02/09 08:33:08;;;;;;;12.82;7.05;;;;;;;9.05;87.25;102165.69;5038444;28;20406;-77
2022/02/09 08:35:34;;;;;;;8.52;6.15;;;;;;;9.04;86.89;102167.53;5048436;28;20044;-77
2022/02/09 08:38:01;;;;;;;10.02;7.05;;;;;;;8.97;86.46;102169.34;5050927;28;20086;-78
2022/02/09 08:40:28;;;;;;;11.02;6.78;;;;;;;9.02;86.65;102166.09;5050512;28;20413;-78
2022/02/09 08:42:54;;;;;;;11.13;6.88;;;;;;;9.02;86.71;102161.56;5050886;28;20291;-78
2022/02/09 08:45:20;;;;;;;10.35;6.68;;;;;;;9.04;86.80;102169.38;5045688;28;20032;-78
2022/02/09 08:47:47;;;;;;;11.35;6.82;;;;;;;9.06;86.10;102167.34;5048934;28;20565;-77
2022/02/09 08:50:14;;;;;;;11.40;5.63;;;;;;;8.95;85.85;102154.56;5048647;28;20119;-77
2022/02/09 08:52:40;;;;;;;8.23;5.47;;;;;;;9.02;85.90;102166.09;5051557;28;20839;-77
2022/02/09 08:55:06;;;;;;;10.43;5.95;;;;;;;9.04;86.02;102159.50;5040663;28;20100;-78
2022/02/09 08:57:34;;;;;;;12.00;6.00;;;;;;;9.05;85.60;102155.81;5047450;28;20029;-77
2022/02/09 09:00:02;;;;;;;8.45;5.80;;;;;;;9.02;85.45;102156.22;5048659;28;20527;-77
2022/02/09 09:02:34;;;;;;;7.72;5.00;;;;;;;9.06;84.91;102153.97;5049357;28;20028;-77
2022/02/09 09:05:10;;;;;;;10.70;5.22;;;;;;;9.08;84.80;102152.72;5049789;28;20036;-77
2022/02/09 09:07:37;;;;;;;7.03;5.30;;;;;;;9.09;84.76;102156.22;5055107;28;20075;-78
2022/02/09 09:10:15;;;;;;;7.63;4.72;;;;;;;9.12;85.02;102150.47;5053010;28;20032;-77
2022/02/09 10:34:48;;;;;;;4.72;2.88;;;;;;;9.53;77.90;102114.69;5048877;28;20029;-77
2022/02/09 10:37:26;;;;;;;4.53;3.30;;;;;;;9.58;78.11;102113.03;5052356;28;20039;-77
2022/02/09 10:42:32;;;;;;;7.10;3.58;;;;;;;9.62;77.85;102114.25;5048630;28;20025;-77
2022/02/09 10:45:07;;;;;;;6.18;2.88;;;;;;;9.62;77.41;102110.75;5055511;28;20443;-77
2022/02/09 10:47:34;;;;;;;5.28;3.42;;;;;;;9.65;77.21;102100.44;5050987;28;20544;-77
2022/02/09 10:50:38;;;;;;;9.30;3.10;;;;;;;9.68;77.13;102101.88;5048389;28;20025;-77
2022/02/09 10:53:10;;;;;;;5.07;3.22;;;;;;;9.72;77.64;102084.38;5049048;28;20040;-77
2022/02/09 10:55:46;;;;;;;4.05;3.17;;;;;;;9.73;77.16;102102.09;5051594;28;20111;-77
2022/02/09 10:58:14;;;;;;;5.95;3.30;;;;;;;9.80;77.42;102100.22;5051519;28;20256;-77
2022/02/09 11:00:45;;;;;;;4.25;3.40;;;;;;;9.84;77.26;102098.75;5044532;28;20421;-77
2022/02/09 11:03:23;;;;;;;4.18;3.00;;;;;;;9.89;77.21;102096.28;5045132;28;20527;-77
2022/02/09 11:05:50;;;;;;;4.50;3.00;;;;;;;9.96;76.72;102096.25;5053392;28;20025;-77
2022/02/09 11:08:17;;;;;;;4.57;3.35;;;;;;;10.00;76.95;102092.94;5054857;28;20032;-77
2022/02/09 11:10:43;;;;;;;6.22;3.33;;;;;;;10.00;76.41;102092.13;5050199;28;20021;-77
2022/02/09 11:13:11;;;;;;;6.40;3.58;;;;;;;9.99;75.85;102098.50;5047964;28;20033;-77
2022/02/09 11:15:41;;;;;;;5.40;3.05;;;;;;;10.02;75.79;102089.22;5048669;28;20114;-78
2022/02/09 11:18:10;;;;;;;3.67;2.53;;;;;;;10.00;75.84;102098.28;5048961;28;20029;-77
2022/02/09 11:20:59;;;;;;;4.50;3.10;;;;;;;9.89;74.72;102090.13;5050852;28;20017;-77
2022/02/09 11:23:55;;;;;;;3.45;2.40;;;;;;;9.99;75.95;102082.44;5045928;28;20342;-77
2022/02/09 11:32:11;;;;;;;4.40;2.47;;;;;;;9.89;73.93;102098.16;5043582;28;20414;-77
2022/02/09 11:34:49;;;;;;;3.70;2.58;;;;;;;9.94;74.34;102090.28;5044103;28;20017;-78
2022/02/09 11:37:27;;;;;;;5.35;2.72;;;;;;;9.94;74.60;102087.63;5050604;28;20393;-77
2022/02/09 11:39:56;;;;;;;5.40;3.03;;;;;;;10.00;74.80;102079.56;5033398;28;20021;-77
2022/02/09 11:42:25;;;;;;;3.92;2.20;;;;;;;10.01;74.10;102080.38;5040513;28;20140;-77
2022/02/09 11:45:07;;;;;;;4.00;2.13;;;;;;;10.06;74.41;102082.44;5048734;28;20179;-77
2022/02/09 11:47:58;;;;;;;3.42;2.38;;;;;;;10.10;74.02;102075.63;5045903;28;20082;-78
2022/02/09 11:54:38;;;;;;;3.75;2.13;;;;;;;10.23;74.20;102072.88;5048294;28;20037;-77
2022/02/09 12:01:28;;;;;;;3.28;2.17;;;;;;;10.29;73.39;102066.69;5049738;28;20211;-77
2022/02/09 12:12:01;;;;;;;3.13;2.25;;;;;;;10.43;73.68;102062.09;5044397;28;20029;-77
2022/02/09 12:14:51;;;;;;;3.30;2.20;;;;;;;10.38;72.31;102057.34;5046339;28;20082;-77
2022/02/09 12:17:47;;;;;;;4.32;2.35;;;;;;;10.44;72.84;102059.19;5046113;28;20566;-78
2022/02/09 12:20:29;;;;;;;3.97;2.20;;;;;;;10.47;73.02;102064.13;5035726;28;20060;-77
2022/02/09 12:25:44;;;;;;;3.03;2.03;;;;;;;10.43;71.60;102060.25;5046800;28;20028;-77
2022/02/09 12:28:26;;;;;;;3.22;1.98;;;;;;;10.46;72.59;102051.78;5051081;28;20029;-77
2022/02/09 12:31:15;;;;;;;3.95;2.00;;;;;;;10.40;72.63;102049.94;5046337;28;20104;-77
2022/02/09 12:33:47;;;;;;;2.38;1.98;;;;;;;10.44;72.82;102047.66;5045209;28;21252;-77
2022/02/09 12:36:16;;;;;;;3.92;2.05;;;;;;;10.44;72.57;102047.66;5045341;28;20036;-77
2022/02/09 12:38:43;;;;;;;2.15;1.95;;;;;;;10.45;72.88;102044.75;5050132;28;20604;-77
2022/02/09 12:41:23;;;;;;;2.47;1.90;;;;;;;10.42;72.14;102052.41;5043615;28;20036;-77
2022/02/09 12:44:07;;;;;;;3.25;2.05;;;;;;;10.45;72.27;102049.31;5041059;28;20024;-77
2022/02/09 12:46:34;;;;;;;2.80;2.13;;;;;;;10.48;72.61;102049.69;5045865;28;20120;-77
2022/02/09 12:49:07;;;;;;;4.88;2.10;;;;;;;10.49;72.38;102045.16;5043745;28;20029;-77
2022/02/09 12:51:33;;;;;;;4.20;2.05;;;;;;;10.53;72.68;102047.19;5042911;28;20036;-77
2022/02/09 12:54:00;;;;;;;5.05;1.83;;;;;;;10.50;72.00;102041.44;5043657;28;20049;-77
2022/02/09 12:56:29;;;;;;;2.85;1.85;;;;;;;10.51;72.01;102043.06;5044808;28;20470;-77
2022/02/09 12:59:09;;;;;;;3.60;1.70;;;;;;;10.47;72.10;102040.00;5027350;28;20036;-77
2022/02/09 13:01:48;;;;;;;2.75;1.80;;;;;;;10.49;71.95;102045.97;5046500;28;20332;-77
2022/02/09 13:04:34;;;;;;;4.97;2.05;;;;;;;10.39;70.30;102045.59;5043627;28;20478;-77
2022/02/09 13:07:07;;;;;;;3.90;1.70;;;;;;;10.47;71.90;102048.03;5044532;28;20025;-77
2022/02/09 13:09:34;;;;;;;2.85;1.65;;;;;;;10.48;71.70;102041.66;5047194;28;20028;-77
2022/02/09 13:12:00;;;;;;;5.35;2.03;;;;;;;10.49;71.59;102048.66;5045383;28;20375;-77
2022/02/09 13:14:34;;;;;;;3.40;1.85;;;;;;;10.52;71.15;102045.53;5043751;28;20024;-77
2022/02/09 13:17:22;;;;;;;3.90;1.73;;;;;;;10.55;71.22;102038.91;5038304;28;20120;-77
2022/02/09 14:19:03;;;;;;;3.17;1.90;;;;;;;10.43;69.04;102020.06;5045740;28;20109;-77
2022/02/09 14:57:00;;;;;;;3.75;1.30;;;;;;;10.21;70.53;102030.25;5051798;28;20099;-78
2022/02/09 15:02:08;;;;;;;1.88;1.30;;;;;;;10.18;70.73;102027.97;5050782;28;20063;-78
2022/02/09 15:12:42;;;;;;;2.70;1.08;;;;;;;10.19;70.99;102026.94;5023230;28;20057;-78
2022/02/09 15:16:06;;;;;;;2.35;1.20;;;;;;;10.20;71.15;102031.25;5044271;28;20033;-78
2022/02/09 15:23:03;;;;;;;1.83;1.40;;;;;;;10.14;72.15;102036.66;5046599;28;20041;-77
2022/02/09 15:25:33;;;;;;;1.38;1.27;;;;;;;10.11;72.13;102037.91;5048689;28;20043;-77
2022/02/09 15:28:01;;;;;;;2.58;1.40;;;;;;;10.13;72.42;102041.19;5047246;28;20041;-77
2022/02/09 15:30:30;;;;;;;1.58;1.30;;;;;;;10.11;72.73;102029.88;5042451;28;20560;-77
2022/02/09 15:32:57;;;;;;;2.22;1.40;;;;;;;10.06;73.17;102029.69;5048833;28;20434;-77
2022/02/09 15:35:31;;;;;;;1.40;1.30;;;;;;;9.99;73.42;102040.44;5050281;28;20067;-77
2022/02/09 16:09:53;;;;;;;1.40;1.27;;;;;;;9.64;75.50;102045.28;5047626;28;20091;-77
2022/02/09 16:26:03;;;;;;;2.45;1.80;;;;;;;9.56;76.08;102050.88;5043156;28;20090;-77
2022/02/09 16:44:22;;;;;;;3.22;2.33;;;;;;;9.57;75.93;102055.19;5048762;28;20035;-77
2022/02/09 16:46:57;;;;;;;2.53;2.30;;;;;;;9.56;76.26;102056.22;5031093;28;20029;-77
2022/02/09 16:49:42;;;;;;;2.40;2.20;;;;;;;9.59;76.12;102060.34;5046836;28;20060;-77
2022/02/09 16:52:15;;;;;;;;;;;;;;;9.46;76.75;102061.16;5046919;28;21412;-77
2022/02/09 16:54:56;;;;;;;2.17;1.98;;;;;;;9.56;76.41;102063.44;5046780;28;20066;-77
2022/02/09 17:15:28;;;;;;;3.42;3.10;;;;;;;9.49;77.02;102082.16;5043138;28;20892;-77
2022/02/09 17:19:33;;;;;;;3.88;3.40;;;;;;;9.46;77.39;102084.44;5046109;28;20074;-77
2022/02/09 17:21:59;;;;;;;5.72;3.33;;;;;;;9.47;77.59;102088.75;5045054;28;20121;-78
2022/02/09 17:24:25;;;;;;;5.60;3.30;;;;;;;9.48;77.47;102082.34;5046976;28;20029;-77
2022/02/09 17:26:53;;;;;;;5.10;3.67;;;;;;;9.45;77.72;102085.47;5048769;28;20029;-78
2022/02/09 17:29:23;;;;;;;3.50;3.00;;;;;;;9.44;77.90;102086.50;5045001;28;20021;-77
2022/02/09 17:31:59;;;;;;;3.65;2.92;;;;;;;9.43;78.09;102083.00;5043573;28;20029;-77
2022/02/09 17:55:58;;;;;;;7.35;3.92;;;;;;;9.39;78.10;102074.56;5042899;28;20119;-77
2022/02/09 17:58:28;;;;;;;;;;;;;;;9.33;78.29;102077.22;5042696;28;20035;-77
2022/02/09 18:00:54;;;;;;;4.43;3.08;;;;;;;9.41;78.14;102073.53;5039949;28;19921;-77
2022/02/09 18:03:20;;;;;;;4.40;3.30;;;;;;;9.38;78.41;102074.78;5042952;28;20087;-77
2022/02/09 18:05:55;;;;;;;4.72;3.20;;;;;;;9.37;78.28;102079.31;5045080;28;20740;-77
2022/02/09 18:08:35;;;;;;;5.03;3.42;;;;;;;9.37;78.50;102076.63;5043695;28;20156;-77
2022/02/09 18:14:14;;;;;;;8.52;3.53;;;;;;;9.40;78.35;102078.06;5043288;28;20473;-77
2022/02/09 18:30:22;;;;;;;3.70;2.95;;;;;;;9.39;78.11;102066.53;5041512;28;20537;-77
2022/02/09 18:43:32;;;;;;;3.45;2.60;;;;;;;9.32;78.64;102067.56;5045548;28;20059;-77
2022/02/09 19:00:59;;;;;;;3.25;2.65;;;;;;;9.33;78.31;102087.94;5050473;28;20162;-77
2022/02/09 19:05:51;;;;;;;4.72;2.88;;;;;;;9.35;78.36;102092.06;5048349;28;20112;-77
2022/02/09 19:26:22;;;;;;;6.18;2.72;;;;;;;9.30;78.24;102101.72;5045128;28;20132;-77
2022/02/09 19:52:47;;;;;;;2.88;2.30;;;;;;;9.32;78.13;102088.97;5053036;28;20144;-77
2022/02/09 19:57:54;;;;;;;3.88;2.30;;;;;;;9.37;78.09;102091.84;5052859;28;20074;-77
2022/02/09 20:00:22;;;;;;;4.35;2.83;;;;;;;9.30;78.31;102094.50;5051898;28;20857;-77
2022/02/09 20:02:47;;;;;;;4.75;2.47;;;;;;;9.36;78.46;102092.88;5067511;28;20036;-77
2022/02/09 20:05:22;;;;;;;3.60;2.85;;;;;;;9.37;78.32;102087.34;5045151;28;20029;-77
2022/02/09 20:07:47;;;;;;;3.05;2.70;;;;;;;9.31;78.24;102084.63;5054021;28;20109;-77
2022/02/09 20:10:13;;;;;;;5.25;2.78;;;;;;;9.39;78.35;102085.25;5049999;28;20064;-77
2022/02/09 20:12:42;;;;;;;3.38;3.03;;;;;;;9.38;78.28;102091.66;5055707;28;20032;-77
2022/02/09 20:15:12;;;;;;;3.03;2.47;;;;;;;9.42;77.85;102093.91;5058525;28;20124;-77
2022/02/09 20:17:40;;;;;;;2.97;2.67;;;;;;;9.43;78.18;102103.56;5047875;28;20035;-77
2022/02/09 20:20:09;;;;;;;3.13;2.45;;;;;;;9.44;78.10;102099.88;5048308;28;20055;-77
2022/02/09 20:22:34;;;;;;;3.63;3.00;;;;;;;9.43;78.34;102098.22;5047128;28;20214;-77
2022/02/09 20:24:59;;;;;;;3.85;3.15;;;;;;;9.40;77.83;102099.47;5053225;28;20108;-77
2022/02/09 20:27:25;;;;;;;4.18;2.58;;;;;;;9.41;78.01;102095.75;5052403;28;20025;-77
2022/02/09 20:29:53;;;;;;;4.90;3.15;;;;;;;9.39;77.93;102104.00;5049012;28;20658;-77
2022/02/09 20:32:28;;;;;;;8.02;3.55;;;;;;;9.38;78.20;102102.34;5053339;28;20034;-78
2022/02/09 20:34:56;;;;;;;6.20;3.03;;;;;;;9.39;78.41;102101.31;5049786;28;20584;-77
2022/02/09 20:37:25;;;;;;;4.47;3.55;;;;;;;9.42;78.30;102101.94;5052539;28;20020;-78
2022/02/09 20:40:07;;;;;;;4.97;3.45;;;;;;;9.42;77.74;102102.75;5054184;28;20142;-77
2022/02/09 20:42:33;;;;;;;5.15;3.30;;;;;;;9.45;78.26;102096.16;5045950;28;20025;-78
2022/02/09 20:45:10;;;;;;;5.93;4.03;;;;;;;9.43;78.30;102092.88;5047217;28;20083;-78
2022/02/09 20:47:37;;;;;;;4.78;3.15;;;;;;;9.43;78.09;102093.69;5051746;28;20027;-78
2022/02/09 20:50:04;;;;;;;4.03;3.55;;;;;;;9.42;78.11;102078.69;5043313;28;20018;-77
2022/02/09 20:52:29;;;;;;;4.70;3.30;;;;;;;9.40;78.08;102088.75;5049104;28;20029;-77
2022/02/09 20:54:55;;;;;;;4.47;3.13;;;;;;;9.42;77.86;102086.69;5050660;28;20041;-77
2022/02/09 20:57:20;;;;;;;4.35;3.40;;;;;;;9.43;78.05;102096.38;5048656;28;20029;-77
2022/02/09 20:59:50;;;;;;;5.90;4.05;;;;;;;9.44;77.48;102099.88;5045796;28;20060;-78
2022/02/09 21:04:52;;;;;;;4.47;3.50;;;;;;;9.47;77.73;102102.13;5041500;28;20048;-77
2022/02/09 21:07:30;;;;;;;4.97;3.42;;;;;;;9.44;77.65;102098.00;5048717;28;20579;-78
2022/02/09 21:10:31;;;;;;;7.03;3.35;;;;;;;9.45;77.70;102094.31;5054748;28;20698;-78
2022/02/09 21:12:49;;;;;;;3.67;3.30;;;;;;;9.45;77.60;102096.97;5047601;28;20047;-78
2022/02/09 21:15:34;;;;;;;4.90;3.70;;;;;;;9.41;78.00;102090.41;5052488;28;20029;-78
2022/02/09 21:20:56;;;;;;;4.70;3.15;;;;;;;9.43;77.90;102103.56;5049587;28;20112;-78
2022/02/09 21:30:03;;;;;;;4.85;3.45;;;;;;;9.41;77.70;102101.09;5022495;28;20049;-78
2022/02/09 21:44:23;;;;;;;13.55;4.72;;;;;;;9.27;78.19;102089.59;5050911;28;20043;-77
2022/02/09 22:06:03;;;;;;;6.63;4.90;;;;;;;9.09;78.93;102090.22;5049934;28;19951;-76
2022/02/09 22:47:57;;;;;;;9.65;5.65;;;;;;;9.13;79.59;102092.47;5051690;28;20063;-76
2022/02/09 22:55:38;;;;;;;9.32;5.70;;;;;;;9.20;79.12;102094.13;5052511;28;20142;-78
2022/02/09 22:58:06;;;;;;;10.35;5.63;;;;;;;9.20;79.08;102091.44;5059796;28;20066;-78
2022/02/09 23:03:25;;;;;;;10.75;6.10;;;;;;;9.22;79.12;102097.41;5054992;28;20612;-78
2022/02/09 23:25:02;;;;;;;9.75;6.30;;;;;;;9.10;80.66;102091.03;5049204;28;20040;-78
2022/02/09 23:27:49;;;;;;;9.60;6.40;;;;;;;9.08;80.89;102095.75;5057911;28;20059;-77
